sensor_id;sensor_type;location;lat;lon;timestamp;pressure;altitude;pressure_sealevel;temperature;humidity
41898;BME280;27576;53.366;-1.498;2022-08-01T00:02:27;100553.38;;;16.28;75.18
41898;BME280;27576;53.366;-1.498;2022-08-01T00:04:56;100536.00;;;16.20;75.49
41898;BME280;27576;53.366;-1.498;2022-08-01T00:07:21;100570.69;;;16.38;76.78
41898;BME280;27576;53.366;-1.498;2022-08-01T00:09:47;100571.63;;;16.35;76.24
41898;BME280;27576;53.366;-1.498;2022-08-01T00:12:12;100555.94;;;16.31;77.17
41898;BME280;27576;53.366;-1.498;2022-08-01T00:14:38;100561.16;;;16.35;77.75
41898;BME280;27576;53.366;-1.498;2022-08-01T00:17:03;100561.16;;;16.34;78.14
41898;BME280;27576;53.366;-1.498;2022-08-01T00:19:29;100574.22;;;16.37;78.03
41898;BME280;27576;53.366;-1.498;2022-08-01T00:21:54;100575.94;;;16.38;79.09
41898;BME280;27576;53.366;-1.498;2022-08-01T00:24:20;100568.97;;;16.37;79.40
41898;BME280;27576;53.366;-1.498;2022-08-01T00:26:45;100551.63;;;16.27;79.04
41898;BME280;27576;53.366;-1.498;2022-08-01T00:29:11;100561.22;;;16.26;78.84
41898;BME280;27576;53.366;-1.498;2022-08-01T00:31:36;100559.47;;;16.27;79.88
41898;BME280;27576;53.366;-1.498;2022-08-01T00:34:01;100562.94;;;16.32;80.11
41898;BME280;27576;53.366;-1.498;2022-08-01T00:36:27;100573.34;;;16.36;79.94
41898;BME280;27576;53.366;-1.498;2022-08-01T00:38:52;100552.53;;;16.23;77.89
41898;BME280;27576;53.366;-1.498;2022-08-01T00:41:18;100559.50;;;16.22;76.51
41898;BME280;27576;53.366;-1.498;2022-08-01T00:43:43;100561.31;;;16.15;77.53
41898;BME280;27576;53.366;-1.498;2022-08-01T00:46:09;100549.16;;;16.08;78.46
41898;BME280;27576;53.366;-1.498;2022-08-01T00:48:34;100557.84;;;16.13;78.36
41898;BME280;27576;53.366;-1.498;2022-08-01T00:51:00;100576.09;;;16.18;78.87
41898;BME280;27576;53.366;-1.498;2022-08-01T00:53:25;100551.72;;;16.14;78.55
41898;BME280;27576;53.366;-1.498;2022-08-01T00:55:51;100548.25;;;16.12;78.53
41898;BME280;27576;53.366;-1.498;2022-08-01T00:58:17;100572.59;;;16.24;78.86
41898;BME280;27576;53.366;-1.498;2022-08-01T01:00:42;100561.31;;;16.14;79.03
41898;BME280;27576;53.366;-1.498;2022-08-01T01:03:08;100558.75;;;16.06;78.68
41898;BME280;27576;53.366;-1.498;2022-08-01T01:05:42;100549.22;;;15.99;78.81
41898;BME280;27576;53.366;-1.498;2022-08-01T01:08:26;100552.69;;;16.01;80.73
41898;BME280;27576;53.366;-1.498;2022-08-01T01:10:59;100571.78;;;16.11;79.81
41898;BME280;27576;53.366;-1.498;2022-08-01T01:13:42;100580.50;;;16.10;79.02
41898;BME280;27576;53.366;-1.498;2022-08-01T01:16:15;100564.91;;;16.01;80.06
41898;BME280;27576;53.366;-1.498;2022-08-01T01:18:46;100553.63;;;15.94;80.23
41898;BME280;27576;53.366;-1.498;2022-08-01T01:29:15;100564.06;;;15.94;80.96
41898;BME280;27576;53.366;-1.498;2022-08-01T01:31:49;100563.22;;;15.90;80.21
41898;BME280;27576;53.366;-1.498;2022-08-01T01:34:17;100558.00;;;15.87;80.44
41898;BME280;27576;53.366;-1.498;2022-08-01T01:36:43;100564.97;;;15.87;81.09
41898;BME280;27576;53.366;-1.498;2022-08-01T01:39:11;100582.34;;;15.97;80.22
41898;BME280;27576;53.366;-1.498;2022-08-01T01:41:39;100576.22;;;15.98;81.07
41898;BME280;27576;53.366;-1.498;2022-08-01T01:44:06;100558.88;;;15.86;81.14
41898;BME280;27576;53.366;-1.498;2022-08-01T01:46:33;100568.47;;;15.89;82.08
41898;BME280;27576;53.366;-1.498;2022-08-01T01:49:01;100547.66;;;15.77;81.22
41898;BME280;27576;53.366;-1.498;2022-08-01T01:51:28;100553.72;;;15.79;81.37
41898;BME280;27576;53.366;-1.498;2022-08-01T01:53:55;100560.66;;;15.80;79.86
41898;BME280;27576;53.366;-1.498;2022-08-01T01:56:22;100557.22;;;15.75;80.93
41898;BME280;27576;53.366;-1.498;2022-08-01T01:58:55;100563.22;;;15.87;80.92
41898;BME280;27576;53.366;-1.498;2022-08-01T02:01:23;100540.69;;;15.74;80.48
41898;BME280;27576;53.366;-1.498;2022-08-01T02:03:51;100564.13;;;15.88;80.07
41898;BME280;27576;53.366;-1.498;2022-08-01T02:06:19;100558.91;;;15.88;80.20
41898;BME280;27576;53.366;-1.498;2022-08-01T02:08:47;100564.97;;;15.87;79.94
41898;BME280;27576;53.366;-1.498;2022-08-01T02:11:13;100563.22;;;15.87;80.17
41898;BME280;27576;53.366;-1.498;2022-08-01T02:13:49;100527.69;;;15.60;80.36
41898;BME280;27576;53.366;-1.498;2022-08-01T02:16:18;100550.25;;;15.77;80.36
41898;BME280;27576;53.366;-1.498;2022-08-01T02:18:45;100552.88;;;15.74;79.30
41898;BME280;27576;53.366;-1.498;2022-08-01T02:21:14;100556.34;;;15.74;78.74
41898;BME280;27576;53.366;-1.498;2022-08-01T02:23:42;100535.53;;;15.57;80.36
41898;BME280;27576;53.366;-1.498;2022-08-01T02:26:10;100559.88;;;15.68;80.83
41898;BME280;27576;53.366;-1.498;2022-08-01T02:28:59;100534.69;;;15.47;81.42
41898;BME280;27576;53.366;-1.498;2022-08-01T02:31:30;100544.28;;;15.49;81.58
41898;BME280;27576;53.366;-1.498;2022-08-01T02:34:01;100534.69;;;15.47;80.71
41898;BME280;27576;53.366;-1.498;2022-08-01T02:36:30;100553.81;;;15.54;80.53
41898;BME280;27576;53.366;-1.498;2022-08-01T02:39:00;100550.34;;;15.51;80.46
41898;BME280;27576;53.366;-1.498;2022-08-01T02:41:27;100525.19;;;15.36;82.10
41898;BME280;27576;53.366;-1.498;2022-08-01T02:43:59;100536.50;;;15.41;81.19
41898;BME280;27576;53.366;-1.498;2022-08-01T02:46:36;100526.94;;;15.34;81.46
41898;BME280;27576;53.366;-1.498;2022-08-01T02:49:03;100535.63;;;15.37;80.64
41898;BME280;27576;53.366;-1.498;2022-08-01T02:51:31;100549.53;;;15.39;80.31
41898;BME280;27576;53.366;-1.498;2022-08-01T02:53:59;100543.50;;;15.33;82.05
41898;BME280;27576;53.366;-1.498;2022-08-01T02:56:27;100530.47;;;15.22;80.98
41898;BME280;27576;53.366;-1.498;2022-08-01T02:59:06;100552.19;;;15.32;81.87
41898;BME280;27576;53.366;-1.498;2022-08-01T03:01:34;100553.09;;;15.29;81.77
41898;BME280;27576;53.366;-1.498;2022-08-01T03:04:00;100532.28;;;15.09;81.74
41898;BME280;27576;53.366;-1.498;2022-08-01T03:06:28;100537.50;;;15.09;83.07
41898;BME280;27576;53.366;-1.498;2022-08-01T03:08:55;100544.44;;;15.13;82.70
41898;BME280;27576;53.366;-1.498;2022-08-01T03:11:22;100535.75;;;15.10;82.55
41898;BME280;27576;53.366;-1.498;2022-08-01T03:13:50;100556.59;;;15.19;83.87
41898;BME280;27576;53.366;-1.498;2022-08-01T03:16:18;100564.41;;;15.27;83.16
41898;BME280;27576;53.366;-1.498;2022-08-01T03:18:45;100545.25;;;15.20;83.19
41898;BME280;27576;53.366;-1.498;2022-08-01T03:21:13;100544.41;;;15.19;83.23
41898;BME280;27576;53.366;-1.498;2022-08-01T03:23:40;100553.97;;;15.25;82.63
41898;BME280;27576;53.366;-1.498;2022-08-01T03:26:05;100534.00;;;15.07;82.69
41898;BME280;27576;53.366;-1.498;2022-08-01T03:28:32;100524.44;;;15.06;83.96
41898;BME280;27576;53.366;-1.498;2022-08-01T03:30:58;100550.47;;;15.23;84.38
41898;BME280;27576;53.366;-1.498;2022-08-01T03:33:25;100550.50;;;15.21;85.33
41898;BME280;27576;53.366;-1.498;2022-08-01T03:35:54;100548.72;;;15.23;83.79
41898;BME280;27576;53.366;-1.498;2022-08-01T03:38:23;100550.50;;;15.21;83.49
41898;BME280;27576;53.366;-1.498;2022-08-01T03:40:53;100520.97;;;15.04;83.21
41898;BME280;27576;53.366;-1.498;2022-08-01T03:43:32;100548.78;;;15.17;83.73
41898;BME280;27576;53.366;-1.498;2022-08-01T03:46:04;100540.94;;;15.14;83.28
41898;BME280;27576;53.366;-1.498;2022-08-01T03:48:36;100527.09;;;14.98;84.03
41898;BME280;27576;53.366;-1.498;2022-08-01T03:51:03;100527.97;;;14.93;83.41
41898;BME280;27576;53.366;-1.498;2022-08-01T03:53:30;100542.75;;;15.02;83.87
41898;BME280;27576;53.366;-1.498;2022-08-01T03:56:00;100530.59;;;14.88;83.25
41898;BME280;27576;53.366;-1.498;2022-08-01T03:58:27;100522.81;;;14.78;83.54
41898;BME280;27576;53.366;-1.498;2022-08-01T04:00:53;100526.28;;;14.75;84.06
41898;BME280;27576;53.366;-1.498;2022-08-01T04:03:19;100534.97;;;14.76;83.92
41898;BME280;27576;53.366;-1.498;2022-08-01T04:05:45;100543.69;;;14.71;85.30
41898;BME280;27576;53.366;-1.498;2022-08-01T04:08:10;100504.56;;;14.44;84.78
41898;BME280;27576;53.366;-1.498;2022-08-01T04:10:37;100499.34;;;14.38;85.01
41898;BME280;27576;53.366;-1.498;2022-08-01T04:13:02;100510.66;;;14.37;84.73
41898;BME280;27576;53.366;-1.498;2022-08-01T04:15:28;100529.78;;;14.49;84.89
41898;BME280;27576;53.366;-1.498;2022-08-01T04:17:54;100541.94;;;14.46;85.31
41898;BME280;27576;53.366;-1.498;2022-08-01T04:20:20;100517.63;;;14.33;86.42
41898;BME280;27576;53.366;-1.498;2022-08-01T04:22:46;100519.34;;;14.33;85.51
41898;BME280;27576;53.366;-1.498;2022-08-01T04:25:19;100508.06;;;14.20;85.50
41898;BME280;27576;53.366;-1.498;2022-08-01T04:27:49;100501.09;;;14.14;86.36
41898;BME280;27576;53.366;-1.498;2022-08-01T04:30:18;100488.09;;;14.05;86.32
41898;BME280;27576;53.366;-1.498;2022-08-01T04:32:46;100521.13;;;14.15;86.07
41898;BME280;27576;53.366;-1.498;2022-08-01T04:35:13;100528.03;;;14.21;87.78
41898;BME280;27576;53.366;-1.498;2022-08-01T04:37:42;100523.69;;;14.14;87.19
41898;BME280;27576;53.366;-1.498;2022-08-01T04:40:10;100514.13;;;14.07;87.22
41898;BME280;27576;53.366;-1.498;2022-08-01T04:42:36;100517.63;;;14.04;87.42
41898;BME280;27576;53.366;-1.498;2022-08-01T04:45:02;100533.28;;;14.12;88.21
41898;BME280;27576;53.366;-1.498;2022-08-01T04:47:29;100529.78;;;14.05;87.71
41898;BME280;27576;53.366;-1.498;2022-08-01T04:49:56;100519.38;;;14.04;88.29
41898;BME280;27576;53.366;-1.498;2022-08-01T04:52:21;100537.59;;;14.17;88.26
41898;BME280;27576;53.366;-1.498;2022-08-01T04:54:50;100512.41;;;14.01;87.68
41898;BME280;27576;53.366;-1.498;2022-08-01T04:57:19;100524.56;;;14.08;88.73
41898;BME280;27576;53.366;-1.498;2022-08-01T04:59:44;100508.94;;;13.99;88.96
41898;BME280;27576;53.366;-1.498;2022-08-01T05:02:15;100548.03;;;14.22;88.25
41898;BME280;27576;53.366;-1.498;2022-08-01T05:04:41;100536.75;;;14.12;88.14
41898;BME280;27576;53.366;-1.498;2022-08-01T05:07:07;100552.38;;;14.23;88.39
41898;BME280;27576;53.366;-1.498;2022-08-01T05:09:33;100547.16;;;14.24;88.41
41898;BME280;27576;53.366;-1.498;2022-08-01T05:12:00;100517.63;;;14.04;88.22
41898;BME280;27576;53.366;-1.498;2022-08-01T05:14:27;100533.25;;;14.16;89.12
41898;BME280;27576;53.366;-1.498;2022-08-01T05:16:53;100538.47;;;14.19;90.05
41898;BME280;27576;53.366;-1.498;2022-08-01T05:19:19;100536.72;;;14.26;89.85
41898;BME280;27576;53.366;-1.498;2022-08-01T05:21:44;100548.91;;;14.32;90.11
41898;BME280;27576;53.366;-1.498;2022-08-01T05:24:10;100547.16;;;14.37;90.41
41898;BME280;27576;53.366;-1.498;2022-08-01T05:26:35;100558.44;;;14.42;90.66
41898;BME280;27576;53.366;-1.498;2022-08-01T05:29:01;100536.72;;;14.37;90.67
41898;BME280;27576;53.366;-1.498;2022-08-01T05:31:26;100546.28;;;14.47;90.99
41898;BME280;27576;53.366;-1.498;2022-08-01T05:33:52;100515.91;;;14.31;90.81
41898;BME280;27576;53.366;-1.498;2022-08-01T05:36:18;100524.56;;;14.40;89.78
41898;BME280;27576;53.366;-1.498;2022-08-01T05:38:43;100520.22;;;14.33;89.95
41898;BME280;27576;53.366;-1.498;2022-08-01T05:41:10;100545.44;;;14.49;90.20
41898;BME280;27576;53.366;-1.498;2022-08-01T05:43:35;100535.88;;;14.47;90.28
41898;BME280;27576;53.366;-1.498;2022-08-01T05:46:01;100517.59;;;14.41;90.64
41898;BME280;27576;53.366;-1.498;2022-08-01T05:48:26;100535.88;;;14.47;89.83
41898;BME280;27576;53.366;-1.498;2022-08-01T05:50:55;100533.25;;;14.53;89.19
41898;BME280;27576;53.366;-1.498;2022-08-01T05:53:20;100532.38;;;14.57;88.72
41898;BME280;27576;53.366;-1.498;2022-08-01T05:55:46;100545.44;;;14.63;89.85
41898;BME280;27576;53.366;-1.498;2022-08-01T05:58:11;100541.94;;;14.69;89.85
41898;BME280;27576;53.366;-1.498;2022-08-01T06:00:37;100548.00;;;14.80;90.17
41898;BME280;27576;53.366;-1.498;2022-08-01T06:03:02;100558.41;;;14.94;90.66
41898;BME280;27576;53.366;-1.498;2022-08-01T06:05:28;100532.34;;;14.85;90.66
41898;BME280;27576;53.366;-1.498;2022-08-01T06:07:53;100555.78;;;14.98;90.67
41898;BME280;27576;53.366;-1.498;2022-08-01T06:10:19;100540.13;;;14.97;90.59
41898;BME280;27576;53.366;-1.498;2022-08-01T06:12:44;100575.69;;;15.24;89.98
41898;BME280;27576;53.366;-1.498;2022-08-01T06:15:11;100573.97;;;15.29;89.08
41898;BME280;27576;53.366;-1.498;2022-08-01T06:17:36;100580.88;;;15.36;88.69
41898;BME280;27576;53.366;-1.498;2022-08-01T06:20:02;100573.06;;;15.41;88.33
41898;BME280;27576;53.366;-1.498;2022-08-01T06:22:28;100565.22;;;15.38;88.03
41898;BME280;27576;53.366;-1.498;2022-08-01T06:24:53;100542.59;;;15.32;88.24
41898;BME280;27576;53.366;-1.498;2022-08-01T06:27:19;100574.72;;;15.57;88.68
41898;BME280;27576;53.366;-1.498;2022-08-01T06:29:44;100572.06;;;15.59;88.17
41898;BME280;27576;53.366;-1.498;2022-08-01T06:32:10;100559.88;;;15.59;87.46
41898;BME280;27576;53.366;-1.498;2022-08-01T06:34:35;100567.69;;;15.71;86.45
41898;BME280;27576;53.366;-1.498;2022-08-01T06:37:01;100580.66;;;15.87;85.79
41898;BME280;27576;53.366;-1.498;2022-08-01T06:39:26;100580.63;;;15.94;85.18
41898;BME280;27576;53.366;-1.498;2022-08-01T06:41:52;100556.25;;;15.89;84.88
41898;BME280;27576;53.366;-1.498;2022-08-01T06:44:17;100538.00;;;15.85;85.03
41898;BME280;27576;53.366;-1.498;2022-08-01T06:46:43;100522.34;;;15.79;85.06
41898;BME280;27576;53.366;-1.498;2022-08-01T06:49:08;100559.66;;;16.04;84.66
41898;BME280;27576;53.366;-1.498;2022-08-01T06:51:34;100557.00;;;16.11;83.87
41898;BME280;27576;53.366;-1.498;2022-08-01T06:53:59;100562.19;;;16.14;83.55
41898;BME280;27576;53.366;-1.498;2022-08-01T06:56:24;100558.66;;;16.18;83.83
41898;BME280;27576;53.366;-1.498;2022-08-01T06:58:50;100575.09;;;16.34;83.35
41898;BME280;27576;53.366;-1.498;2022-08-01T07:01:16;100565.53;;;16.33;82.74
41898;BME280;27576;53.366;-1.498;2022-08-01T07:03:41;100556.78;;;16.34;82.36
41898;BME280;27576;53.366;-1.498;2022-08-01T07:06:07;100548.06;;;16.37;81.79
41898;BME280;27576;53.366;-1.498;2022-08-01T07:08:32;100577.53;;;16.54;81.45
41898;BME280;27576;53.366;-1.498;2022-08-01T07:10:58;100569.75;;;16.51;80.21
41898;BME280;27576;53.366;-1.498;2022-08-01T07:13:28;100571.38;;;16.58;80.15
41898;BME280;27576;53.366;-1.498;2022-08-01T07:15:56;100580.97;;;16.62;80.01
41898;BME280;27576;53.366;-1.498;2022-08-01T07:18:22;100550.56;;;16.49;79.54
41898;BME280;27576;53.366;-1.498;2022-08-01T07:20:48;100541.03;;;16.43;79.50
41898;BME280;27576;53.366;-1.498;2022-08-01T07:23:14;100577.38;;;16.73;76.50
41898;BME280;27576;53.366;-1.498;2022-08-01T07:25:40;100575.56;;;16.84;76.33
41898;BME280;27576;53.366;-1.498;2022-08-01T07:28:06;100571.06;;;16.98;77.11
41898;BME280;27576;53.366;-1.498;2022-08-01T07:30:32;100552.66;;;17.01;75.89
41898;BME280;27576;53.366;-1.498;2022-08-01T07:32:57;100560.28;;;17.23;74.72
41898;BME280;27576;53.366;-1.498;2022-08-01T07:35:23;100573.19;;;17.41;73.40
41898;BME280;27576;53.366;-1.498;2022-08-01T07:37:48;100545.25;;;17.38;73.20
41898;BME280;27576;53.366;-1.498;2022-08-01T07:40:14;100570.19;;;17.69;72.02
41898;BME280;27576;53.366;-1.498;2022-08-01T07:42:39;100553.53;;;17.73;71.66
41898;BME280;27576;53.366;-1.498;2022-08-01T07:45:09;100549.06;;;17.81;71.05
41898;BME280;27576;53.366;-1.498;2022-08-01T07:47:34;100571.44;;;18.03;71.37
41898;BME280;27576;53.366;-1.498;2022-08-01T07:50:02;100564.31;;;18.11;69.84
41898;BME280;27576;53.366;-1.498;2022-08-01T07:52:28;100557.34;;;18.10;69.01
41898;BME280;27576;53.366;-1.498;2022-08-01T07:54:53;100578.00;;;18.32;68.66
41898;BME280;27576;53.366;-1.498;2022-08-01T07:57:20;100565.63;;;18.38;68.17
41898;BME280;27576;53.366;-1.498;2022-08-01T07:59:45;100562.94;;;18.45;67.53
41898;BME280;27576;53.366;-1.498;2022-08-01T08:02:10;100495.19;;;18.15;67.23
41898;BME280;27576;53.366;-1.498;2022-08-01T08:04:36;100534.91;;;18.45;66.05
41898;BME280;27576;53.366;-1.498;2022-08-01T08:07:01;100548.63;;;18.61;66.58
41898;BME280;27576;53.366;-1.498;2022-08-01T08:09:27;100552.88;;;18.68;66.26
41898;BME280;27576;53.366;-1.498;2022-08-01T08:11:52;100545.88;;;18.69;66.51
41898;BME280;27576;53.366;-1.498;2022-08-01T08:14:18;100563.09;;;18.85;65.22
41898;BME280;27576;53.366;-1.498;2022-08-01T08:16:44;100558.63;;;18.90;64.70
41898;BME280;27576;53.366;-1.498;2022-08-01T08:19:11;100539.53;;;18.82;63.14
41898;BME280;27576;53.366;-1.498;2022-08-01T08:21:36;100557.72;;;18.93;62.69
41898;BME280;27576;53.366;-1.498;2022-08-01T08:24:02;100536.13;;;18.77;62.74
41898;BME280;27576;53.366;-1.498;2022-08-01T08:26:47;100529.16;;;18.74;61.06
41898;BME280;27576;53.366;-1.498;2022-08-01T08:29:13;100548.22;;;18.85;61.69
41898;BME280;27576;53.366;-1.498;2022-08-01T08:31:39;100527.44;;;18.75;62.58
41898;BME280;27576;53.366;-1.498;2022-08-01T08:34:05;100552.31;;;19.00;61.99
41898;BME280;27576;53.366;-1.498;2022-08-01T08:36:30;100548.53;;;19.13;62.71
41898;BME280;27576;53.366;-1.498;2022-08-01T08:38:55;100550.84;;;19.29;62.87
41898;BME280;27576;53.366;-1.498;2022-08-01T08:41:22;100529.81;;;19.29;60.94
41898;BME280;27576;53.366;-1.498;2022-08-01T08:43:47;100544.50;;;19.39;61.59
41898;BME280;27576;53.366;-1.498;2022-08-01T08:46:13;100532.19;;;19.41;62.32
41898;BME280;27576;53.366;-1.498;2022-08-01T08:48:40;100537.03;;;19.61;62.22
41898;BME280;27576;53.366;-1.498;2022-08-01T08:51:05;100525.75;;;19.56;59.85
41898;BME280;27576;53.366;-1.498;2022-08-01T08:53:35;100539.50;;;19.69;59.92
41898;BME280;27576;53.366;-1.498;2022-08-01T08:56:02;100543.72;;;19.77;60.40
41898;BME280;27576;53.366;-1.498;2022-08-01T08:58:29;100525.25;;;19.79;59.82
41898;BME280;27576;53.366;-1.498;2022-08-01T09:00:59;100525.88;;;19.90;60.26
41898;BME280;27576;53.366;-1.498;2022-08-01T09:03:24;100545.41;;;20.17;60.20
41898;BME280;27576;53.366;-1.498;2022-08-01T09:05:50;100542.53;;;20.26;58.89
41898;BME280;27576;53.366;-1.498;2022-08-01T09:08:15;100521.66;;;20.20;57.84
41898;BME280;27576;53.366;-1.498;2022-08-01T09:10:41;100528.38;;;20.32;59.33
41898;BME280;27576;53.366;-1.498;2022-08-01T09:13:09;100542.94;;;20.45;58.95
41898;BME280;27576;53.366;-1.498;2022-08-01T09:18:05;100536.91;;;20.76;59.46
41898;BME280;27576;53.366;-1.498;2022-08-01T09:20:30;100528.72;;;20.85;57.75
41898;BME280;27576;53.366;-1.498;2022-08-01T09:22:56;100509.34;;;20.88;58.25
41898;BME280;27576;53.366;-1.498;2022-08-01T09:25:21;100498.63;;;20.94;57.36
41898;BME280;27576;53.366;-1.498;2022-08-01T09:27:46;100508.09;;;21.01;57.07
41898;BME280;27576;53.366;-1.498;2022-08-01T09:30:13;100539.06;;;21.24;56.93
41898;BME280;27576;53.366;-1.498;2022-08-01T09:33:01;100531.69;;;21.37;55.79
41898;BME280;27576;53.366;-1.498;2022-08-01T09:35:29;100530.50;;;21.47;55.11
41898;BME280;27576;53.366;-1.498;2022-08-01T09:38:19;100544.09;;;21.31;52.85
41898;BME280;27576;53.366;-1.498;2022-08-01T09:40:55;100533.28;;;21.11;53.30
41898;BME280;27576;53.366;-1.498;2022-08-01T09:43:26;100535.22;;;21.04;53.85
41898;BME280;27576;53.366;-1.498;2022-08-01T09:45:52;100524.03;;;20.96;54.46
41898;BME280;27576;53.366;-1.498;2022-08-01T09:48:19;100529.59;;;21.17;55.48
41898;BME280;27576;53.366;-1.498;2022-08-01T09:50:46;100529.09;;;21.35;55.07
41898;BME280;27576;53.366;-1.498;2022-08-01T09:53:12;100495.81;;;21.29;53.92
41898;BME280;27576;53.366;-1.498;2022-08-01T09:55:39;100525.88;;;21.55;53.46
41898;BME280;27576;53.366;-1.498;2022-08-01T09:58:06;100524.47;;;21.71;54.58
41898;BME280;27576;53.366;-1.498;2022-08-01T10:00:32;100497.03;;;21.77;54.15
41898;BME280;27576;53.366;-1.498;2022-08-01T10:02:58;100507.66;;;22.02;54.91
41898;BME280;27576;53.366;-1.498;2022-08-01T10:05:34;100521.94;;;22.23;52.55
41898;BME280;27576;53.366;-1.498;2022-08-01T10:08:03;100509.44;;;22.01;51.09
41898;BME280;27576;53.366;-1.498;2022-08-01T10:10:29;100516.63;;;21.96;50.83
41898;BME280;27576;53.366;-1.498;2022-08-01T10:12:56;100529.25;;;22.15;52.37
41898;BME280;27576;53.366;-1.498;2022-08-01T10:15:23;100534.03;;;22.30;49.94
41898;BME280;27576;53.366;-1.498;2022-08-01T10:18:00;100534.22;;;22.50;51.21
41898;BME280;27576;53.366;-1.498;2022-08-01T10:20:31;100541.78;;;22.61;51.18
41898;BME280;27576;53.366;-1.498;2022-08-01T10:23:00;100536.25;;;22.67;48.21
41898;BME280;27576;53.366;-1.498;2022-08-01T10:25:28;100535.09;;;22.76;51.23
41898;BME280;27576;53.366;-1.498;2022-08-01T10:27:54;100542.59;;;22.88;50.32
41898;BME280;27576;53.366;-1.498;2022-08-01T10:30:22;100534.72;;;23.12;48.48
41898;BME280;27576;53.366;-1.498;2022-08-01T10:32:51;100534.66;;;23.13;48.93
41898;BME280;27576;53.366;-1.498;2022-08-01T10:35:20;100543.03;;;23.01;49.16
41898;BME280;27576;53.366;-1.498;2022-08-01T10:37:47;100528.78;;;22.80;49.21
41898;BME280;27576;53.366;-1.498;2022-08-01T10:40:15;100516.38;;;22.57;49.31
41898;BME280;27576;53.366;-1.498;2022-08-01T10:42:44;100544.75;;;22.52;48.95
41898;BME280;27576;53.366;-1.498;2022-08-01T10:45:15;100538.81;;;22.45;49.91
41898;BME280;27576;53.366;-1.498;2022-08-01T10:50:27;100519.03;;;22.57;50.94
41898;BME280;27576;53.366;-1.498;2022-08-01T10:53:14;100525.22;;;22.81;52.23
41898;BME280;27576;53.366;-1.498;2022-08-01T10:58:23;100518.44;;;22.74;50.31
41898;BME280;27576;53.366;-1.498;2022-08-01T11:01:13;100522.31;;;22.89;51.35
41898;BME280;27576;53.366;-1.498;2022-08-01T11:03:39;100493.00;;;22.96;52.40
41898;BME280;27576;53.366;-1.498;2022-08-01T11:06:04;100516.53;;;23.26;50.85
41898;BME280;27576;53.366;-1.498;2022-08-01T11:08:30;100504.13;;;23.05;49.85
41898;BME280;27576;53.366;-1.498;2022-08-01T11:11:01;100522.84;;;22.98;49.90
41898;BME280;27576;53.366;-1.498;2022-08-01T11:14:00;100508.53;;;22.79;49.82
41898;BME280;27576;53.366;-1.498;2022-08-01T11:16:39;100468.56;;;22.40;51.55
41898;BME280;27576;53.366;-1.498;2022-08-01T11:19:06;100482.63;;;22.65;51.66
41898;BME280;27576;53.366;-1.498;2022-08-01T11:27:23;100483.56;;;23.58;48.16
41898;BME280;27576;53.366;-1.498;2022-08-01T11:32:51;100489.41;;;23.44;46.80
41898;BME280;27576;53.366;-1.498;2022-08-01T11:35:18;100464.38;;;23.08;48.71
41898;BME280;27576;53.366;-1.498;2022-08-01T11:37:46;100478.84;;;22.97;47.89
41898;BME280;27576;53.366;-1.498;2022-08-01T11:40:25;100485.72;;;23.03;49.96
41898;BME280;27576;53.366;-1.498;2022-08-01T11:45:55;100474.66;;;22.92;49.84
41898;BME280;27576;53.366;-1.498;2022-08-01T11:48:25;100447.34;;;22.68;48.10
41898;BME280;27576;53.366;-1.498;2022-08-01T11:50:55;100460.94;;;22.81;49.60
41898;BME280;27576;53.366;-1.498;2022-08-01T11:53:21;100454.38;;;22.67;49.56
41898;BME280;27576;53.366;-1.498;2022-08-01T11:55:49;100463.81;;;22.74;48.99
41898;BME280;27576;53.366;-1.498;2022-08-01T11:58:16;100456.97;;;22.69;49.76
41898;BME280;27576;53.366;-1.498;2022-08-01T12:00:53;100462.38;;;22.66;48.07
41898;BME280;27576;53.366;-1.498;2022-08-01T12:03:27;100460.47;;;22.69;49.60
41898;BME280;27576;53.366;-1.498;2022-08-01T12:05:54;100456.78;;;22.98;50.22
41898;BME280;27576;53.366;-1.498;2022-08-01T12:08:27;100455.72;;;23.26;48.14
41898;BME280;27576;53.366;-1.498;2022-08-01T12:10:53;100433.31;;;23.36;48.33
41898;BME280;27576;53.366;-1.498;2022-08-01T12:13:19;100458.59;;;23.43;46.81
41898;BME280;27576;53.366;-1.498;2022-08-01T12:15:45;100460.88;;;23.31;47.75
41898;BME280;27576;53.366;-1.498;2022-08-01T12:18:11;100444.09;;;23.30;48.36
41898;BME280;27576;53.366;-1.498;2022-08-01T12:20:41;100460.00;;;23.52;45.80
41898;BME280;27576;53.366;-1.498;2022-08-01T12:23:15;100448.53;;;23.75;48.85
41898;BME280;27576;53.366;-1.498;2022-08-01T12:25:41;100435.72;;;23.86;46.46
41898;BME280;27576;53.366;-1.498;2022-08-01T12:28:11;100448.56;;;24.16;46.73
41898;BME280;27576;53.366;-1.498;2022-08-01T12:30:39;100443.41;;;24.33;46.54
41898;BME280;27576;53.366;-1.498;2022-08-01T12:33:07;100453.50;;;24.45;46.32
41898;BME280;27576;53.366;-1.498;2022-08-01T12:35:35;100437.19;;;24.55;45.39
41898;BME280;27576;53.366;-1.498;2022-08-01T12:38:07;100425.47;;;24.60;43.15
41898;BME280;27576;53.366;-1.498;2022-08-01T12:40:41;100445.09;;;24.75;43.36
41898;BME280;27576;53.366;-1.498;2022-08-01T12:43:09;100436.41;;;24.53;43.86
41898;BME280;27576;53.366;-1.498;2022-08-01T12:45:37;100422.88;;;24.59;45.95
41898;BME280;27576;53.366;-1.498;2022-08-01T12:48:09;100418.91;;;25.07;45.67
41898;BME280;27576;53.366;-1.498;2022-08-01T12:50:38;100414.22;;;25.50;44.19
41898;BME280;27576;53.366;-1.498;2022-08-01T12:53:04;100402.22;;;25.60;41.45
41898;BME280;27576;53.366;-1.498;2022-08-01T12:55:29;100421.16;;;25.71;41.40
41898;BME280;27576;53.366;-1.498;2022-08-01T12:58:06;100419.63;;;25.84;39.47
41898;BME280;27576;53.366;-1.498;2022-08-01T13:00:32;100418.53;;;25.69;39.47
41898;BME280;27576;53.366;-1.498;2022-08-01T13:05:26;100394.75;;;26.37;40.08
41898;BME280;27576;53.366;-1.498;2022-08-01T13:07:52;100380.09;;;26.79;38.90
41898;BME280;27576;53.366;-1.498;2022-08-01T13:10:29;100371.22;;;27.28;36.98
41898;BME280;27576;53.366;-1.498;2022-08-01T13:12:57;100390.66;;;27.90;37.98
41898;BME280;27576;53.366;-1.498;2022-08-01T13:15:31;100392.88;;;27.98;37.02